Terminal Aerodrome Forecast
Issued by NWS Wilmington, OH

Current Version | Previous Version | Graphics & Text | Print | Product List | Glossary Off
Versions: 1 2 3 4 5 6 7 8 9 10 11 12 13 14 15 16 17 18 19 20 21 22

000
FTUS41 KILN 281100
TAFCVG
TAF
KCVG 281132Z 2812/2918 03004KT P6SM SCT012
      TEMPO 2812/2813 BKN012
     FM281300 06007KT P6SM SCT080 BKN250
     FM290200 08005KT P6SM SCT250
     FM291000 11004KT 5SM BR SCT250
     FM291300 13006KT P6SM SCT250=

USA.gov is the U.S. government's official web portal to all federal, state and local government web resources and services.